createdAt,value
2016-11-24T00:00:04.779Z,55
2016-11-24T00:01:10.797Z,55
2016-11-24T00:02:16.926Z,55
2016-11-24T00:03:23.143Z,55
2016-11-24T00:04:29.231Z,55
2016-11-24T00:05:35.249Z,55
2016-11-24T00:06:41.267Z,55
2016-11-24T00:07:47.337Z,55
2016-11-24T00:08:53.355Z,55
2016-11-24T00:09:59.380Z,55
2016-11-24T00:11:05.407Z,55
2016-11-24T00:12:11.437Z,55
2016-11-24T00:13:17.451Z,55
2016-11-24T00:14:23.471Z,55
2016-11-24T00:15:29.501Z,55
2016-11-24T00:16:35.527Z,55
2016-11-24T00:17:41.534Z,56
2016-11-24T00:18:47.560Z,56
2016-11-24T00:19:53.593Z,56
2016-11-24T00:20:59.619Z,56
2016-11-24T00:22:05.644Z,56
2016-11-24T00:23:11.663Z,56
2016-11-24T00:24:17.685Z,56
2016-11-24T00:25:23.706Z,56
2016-11-24T00:26:29.731Z,57
2016-11-24T00:27:35.760Z,57
2016-11-24T00:28:41.780Z,57
2016-11-24T00:29:47.807Z,57
2016-11-24T00:30:53.834Z,57
2016-11-24T00:31:59.856Z,57
2016-11-24T00:33:05.882Z,57
2016-11-24T00:34:11.914Z,57
2016-11-24T00:35:17.926Z,57
2016-11-24T00:36:24.153Z,57
2016-11-24T00:37:30.172Z,57
2016-11-24T00:38:36.190Z,58
2016-11-24T00:39:42.218Z,58
2016-11-24T00:40:48.239Z,58
2016-11-24T00:41:54.253Z,58
2016-11-24T00:43:00.279Z,58
2016-11-24T00:44:06.597Z,58
2016-11-24T00:45:12.614Z,58
2016-11-24T00:46:18.647Z,58
2016-11-24T00:47:24.662Z,58
2016-11-24T00:48:30.683Z,59
2016-11-24T00:49:36.769Z,59
2016-11-24T00:50:42.795Z,59
2016-11-24T00:51:48.815Z,59
2016-11-24T00:52:54.834Z,59
2016-11-24T00:54:00.847Z,59
2016-11-24T00:55:06.883Z,59
2016-11-24T00:56:12.897Z,59
2016-11-24T00:57:18.914Z,59
2016-11-24T00:58:24.941Z,59
2016-11-24T00:59:30.967Z,59
2016-11-24T01:00:44.460Z,59
2016-11-24T01:01:50.478Z,59
2016-11-24T01:02:56.505Z,59
2016-11-24T01:04:02.526Z,59
2016-11-24T01:05:08.557Z,59
2016-11-24T01:06:14.579Z,59
2016-11-24T01:07:20.602Z,59
2016-11-24T01:08:26.616Z,60
2016-11-24T01:09:32.633Z,60
2016-11-24T01:10:38.662Z,60
2016-11-24T01:11:43.941Z,60
2016-11-24T01:12:49.960Z,60
2016-11-24T01:13:56.039Z,60
2016-11-24T01:15:02.063Z,60
2016-11-24T01:16:08.086Z,60
2016-11-24T01:17:14.102Z,60
2016-11-24T01:18:20.133Z,61
2016-11-24T01:19:26.148Z,61
2016-11-24T01:20:32.170Z,61
2016-11-24T01:21:38.188Z,61
2016-11-24T01:22:44.216Z,61
2016-11-24T01:23:50.234Z,61
2016-11-24T01:24:56.255Z,61
2016-11-24T01:26:02.375Z,61
2016-11-24T01:27:08.400Z,62
2016-11-24T01:28:14.428Z,62
2016-11-24T01:29:20.454Z,62
2016-11-24T01:30:26.468Z,62
2016-11-24T01:31:32.496Z,62
2016-11-24T01:32:38.523Z,62
2016-11-24T01:33:44.538Z,63
2016-11-24T01:34:50.560Z,63
2016-11-24T01:35:56.582Z,63
2016-11-24T01:37:02.610Z,63
2016-11-24T01:38:08.628Z,63
2016-11-24T01:39:14.651Z,63
2016-11-24T01:40:20.672Z,63
2016-11-24T01:41:26.691Z,64
2016-11-24T01:42:32.721Z,64
2016-11-24T01:43:38.740Z,64
2016-11-24T01:44:44.766Z,64
2016-11-24T01:45:50.780Z,64
2016-11-24T01:46:56.799Z,64
2016-11-24T01:48:02.823Z,64
2016-11-24T01:49:08.942Z,64
2016-11-24T01:50:14.959Z,64
2016-11-24T01:51:20.985Z,64
2016-11-24T01:52:27.008Z,64
2016-11-24T01:53:33.027Z,64
2016-11-24T01:54:39.263Z,65
2016-11-24T01:55:45.280Z,65
2016-11-24T01:56:51.303Z,65
2016-11-24T01:57:57.320Z,65
2016-11-24T01:59:03.346Z,65
2016-11-24T02:00:09.369Z,65
2016-11-24T02:01:15.439Z,65
2016-11-24T02:02:21.465Z,65
2016-11-24T02:03:27.492Z,65
2016-11-24T02:04:33.512Z,65
2016-11-24T02:05:39.534Z,65
2016-11-24T02:06:45.641Z,65
2016-11-24T02:07:51.660Z,65
2016-11-24T02:08:57.678Z,65
2016-11-24T02:10:03.693Z,65
2016-11-24T02:11:17.193Z,65
2016-11-24T02:12:23.207Z,65
2016-11-24T02:13:29.230Z,65
2016-11-24T02:14:35.247Z,65
2016-11-24T02:15:41.264Z,65
2016-11-24T02:16:47.295Z,65
2016-11-24T02:17:53.311Z,65
2016-11-24T02:18:59.330Z,65
2016-11-24T02:20:05.352Z,65
2016-11-24T02:21:11.522Z,65
2016-11-24T02:22:17.418Z,65
2016-11-24T02:23:23.637Z,65
2016-11-24T02:24:29.669Z,66
2016-11-24T02:25:35.693Z,65
2016-11-24T02:26:41.711Z,66
2016-11-24T02:27:47.729Z,66
2016-11-24T02:28:53.761Z,66
2016-11-24T02:29:59.774Z,66
2016-11-24T02:32:15.933Z,66
2016-11-24T02:33:21.952Z,66
2016-11-24T02:34:27.970Z,66
2016-11-24T02:35:33.994Z,66
2016-11-24T02:36:40.015Z,66
2016-11-24T02:37:46.047Z,66
2016-11-24T02:38:52.066Z,66
2016-11-24T02:39:58.288Z,66
2016-11-24T02:42:14.449Z,66
2016-11-24T02:43:20.469Z,66
2016-11-24T02:44:26.489Z,66
2016-11-24T02:45:32.515Z,66
2016-11-24T02:46:38.534Z,66
2016-11-24T02:47:44.564Z,66
2016-11-24T02:48:50.584Z,66
2016-11-24T02:49:56.602Z,65
2016-11-24T02:51:02.714Z,65
2016-11-24T02:52:08.747Z,65
2016-11-24T02:53:14.767Z,65
2016-11-24T02:54:20.783Z,65
2016-11-24T02:55:26.812Z,65
2016-11-24T02:56:32.840Z,65
2016-11-24T02:57:38.858Z,65
2016-11-24T02:58:44.877Z,65
2016-11-24T02:59:50.908Z,65
2016-11-24T03:00:56.923Z,65
2016-11-24T03:02:02.944Z,65
2016-11-24T03:03:08.960Z,65
2016-11-24T03:04:14.988Z,65
2016-11-24T03:05:21.006Z,65
2016-11-24T03:06:27.023Z,65
2016-11-24T03:07:33.050Z,65
2016-11-24T03:08:39.080Z,65
2016-11-24T03:09:45.104Z,65
2016-11-24T03:10:51.123Z,64
2016-11-24T03:11:57.144Z,64
2016-11-24T03:13:03.166Z,64
2016-11-24T03:14:09.192Z,64
2016-11-24T03:15:15.213Z,64
2016-11-24T03:16:21.232Z,64
2016-11-24T03:17:27.254Z,64
2016-11-24T03:18:33.275Z,64
2016-11-24T03:19:39.291Z,64
2016-11-24T03:20:45.308Z,64
2016-11-24T03:21:51.334Z,64
2016-11-24T03:22:57.353Z,64
2016-11-24T03:24:03.376Z,64
2016-11-24T03:25:09.400Z,64
2016-11-24T03:26:15.424Z,63
2016-11-24T03:27:20.696Z,63
2016-11-24T03:28:26.716Z,63
2016-11-24T03:29:32.743Z,63
2016-11-24T03:30:38.763Z,63
2016-11-24T03:31:44.777Z,63
2016-11-24T03:32:50.803Z,63
2016-11-24T03:33:56.822Z,63
2016-11-24T03:35:02.849Z,63
2016-11-24T03:36:08.870Z,63
2016-11-24T03:37:14.890Z,63
2016-11-24T03:38:20.908Z,63
2016-11-24T03:39:26.934Z,63
2016-11-24T03:40:32.954Z,63
2016-11-24T03:41:38.975Z,63
2016-11-24T03:42:44.997Z,63
2016-11-24T03:43:51.022Z,63
2016-11-24T03:44:57.048Z,63
2016-11-24T03:46:03.366Z,63
2016-11-24T03:47:09.388Z,63
2016-11-24T03:48:15.609Z,63
2016-11-24T03:49:21.628Z,63
2016-11-24T03:50:27.648Z,63
2016-11-24T03:51:33.771Z,62
2016-11-24T03:52:39.791Z,62
2016-11-24T03:53:45.809Z,62
2016-11-24T03:54:51.834Z,62
2016-11-24T03:55:57.100Z,62
2016-11-24T03:57:03.121Z,62
2016-11-24T03:58:09.148Z,62
2016-11-24T03:59:15.160Z,62
2016-11-24T04:00:21.192Z,62
2016-11-24T04:01:27.212Z,62
2016-11-24T04:03:44.465Z,62
2016-11-24T04:04:50.484Z,62
2016-11-24T04:05:56.505Z,62
2016-11-24T04:07:02.529Z,62
2016-11-24T04:08:08.551Z,62
2016-11-24T04:09:14.581Z,62
2016-11-24T04:10:20.600Z,62
2016-11-24T04:11:26.620Z,62
2016-11-24T04:12:32.640Z,62
2016-11-24T04:13:38.671Z,62
2016-11-24T04:14:44.694Z,62
2016-11-24T04:15:50.714Z,62
2016-11-24T04:16:56.745Z,62
2016-11-24T04:18:02.768Z,62
2016-11-24T04:19:08.784Z,62
2016-11-24T04:20:14.805Z,62
2016-11-24T04:21:20.836Z,62
2016-11-24T04:22:26.853Z,62
2016-11-24T04:23:32.877Z,62
2016-11-24T04:24:38.893Z,62
2016-11-24T04:25:44.919Z,62
2016-11-24T04:26:50.937Z,62
2016-11-24T04:27:56.960Z,62
2016-11-24T04:29:02.985Z,62
2016-11-24T04:30:09.016Z,62
2016-11-24T04:31:15.038Z,62
2016-11-24T04:32:21.059Z,62
2016-11-24T04:33:27.074Z,62
2016-11-24T04:34:33.098Z,62
2016-11-24T04:35:39.128Z,62
2016-11-24T04:36:45.148Z,62
2016-11-24T04:37:51.168Z,62
2016-11-24T04:38:57.193Z,61
2016-11-24T04:40:03.214Z,61
2016-11-24T04:41:09.234Z,61
2016-11-24T04:42:15.253Z,61
2016-11-24T04:43:21.277Z,61
2016-11-24T04:44:27.295Z,61
2016-11-24T04:45:33.320Z,61
2016-11-24T04:46:39.343Z,61
2016-11-24T04:47:45.369Z,61
2016-11-24T04:48:51.387Z,61
2016-11-24T04:49:57.410Z,61
2016-11-24T04:51:03.437Z,61
2016-11-24T04:52:09.457Z,61
2016-11-24T04:53:15.473Z,61
2016-11-24T04:54:21.498Z,61
2016-11-24T04:55:27.524Z,61
2016-11-24T04:56:33.553Z,61
2016-11-24T04:57:39.575Z,61
2016-11-24T04:58:45.594Z,61
2016-11-24T04:59:51.611Z,61
2016-11-24T05:00:57.636Z,61
2016-11-24T05:02:03.658Z,61
2016-11-24T05:03:09.678Z,61
2016-11-24T05:04:15.700Z,61
2016-11-24T05:05:21.722Z,61
2016-11-24T05:06:27.745Z,61
2016-11-24T05:07:33.768Z,61
2016-11-24T05:08:39.793Z,61
2016-11-24T05:09:45.813Z,61
2016-11-24T05:10:51.830Z,61
2016-11-24T05:11:57.850Z,61
2016-11-24T05:13:03.872Z,61
2016-11-24T05:14:09.896Z,61
2016-11-24T05:15:15.914Z,61
2016-11-24T05:16:21.940Z,61
2016-11-24T05:17:27.956Z,61
2016-11-24T05:18:33.973Z,61
2016-11-24T05:19:39.995Z,61
2016-11-24T05:20:46.016Z,61
2016-11-24T05:21:52.044Z,61
2016-11-24T05:22:58.061Z,61
2016-11-24T05:24:04.081Z,61
2016-11-24T05:25:10.098Z,61
2016-11-24T05:26:16.125Z,61
2016-11-24T05:27:22.142Z,61
2016-11-24T05:28:28.163Z,60
2016-11-24T05:29:34.179Z,60
2016-11-24T05:30:40.206Z,60
2016-11-24T05:31:46.225Z,60
2016-11-24T05:32:52.243Z,60
2016-11-24T05:33:58.267Z,60
2016-11-24T05:35:04.293Z,60
2016-11-24T05:36:10.314Z,60
2016-11-24T05:37:16.335Z,60
2016-11-24T05:38:22.362Z,60
2016-11-24T05:39:28.380Z,60
2016-11-24T05:40:34.395Z,60
2016-11-24T05:41:40.418Z,60
2016-11-24T05:42:46.434Z,60
2016-11-24T05:43:52.456Z,60
2016-11-24T05:44:58.472Z,60
2016-11-24T05:46:04.489Z,60
2016-11-24T05:47:10.507Z,60
2016-11-24T05:48:16.525Z,60
2016-11-24T05:49:22.552Z,60
2016-11-24T05:50:28.566Z,60
2016-11-24T05:51:34.585Z,60
2016-11-24T05:52:40.605Z,60
2016-11-24T05:53:46.635Z,60
2016-11-24T05:54:52.646Z,60
2016-11-24T05:55:58.671Z,60
2016-11-24T05:57:04.696Z,60
2016-11-24T05:58:10.727Z,60
2016-11-24T05:59:16.740Z,60
2016-11-24T06:00:22.760Z,60
2016-11-24T06:01:28.776Z,60
2016-11-24T06:02:34.803Z,60
2016-11-24T06:03:40.829Z,60
2016-11-24T06:04:46.845Z,60
2016-11-24T06:05:52.861Z,60
2016-11-24T06:06:58.886Z,60
2016-11-24T06:08:04.904Z,60
2016-11-24T06:09:10.930Z,60
2016-11-24T06:10:16.948Z,59
2016-11-24T06:11:22.967Z,59
2016-11-24T06:12:28.985Z,59
2016-11-24T06:13:35.011Z,59
2016-11-24T06:14:41.034Z,59
2016-11-24T06:16:57.190Z,59
2016-11-24T06:18:03.211Z,59
2016-11-24T06:19:09.230Z,59
2016-11-24T06:20:15.255Z,59
2016-11-24T06:21:21.274Z,59
2016-11-24T06:22:27.306Z,59
2016-11-24T06:23:33.329Z,59
2016-11-24T06:24:39.345Z,59
2016-11-24T06:25:45.368Z,59
2016-11-24T06:26:51.397Z,59
2016-11-24T06:27:57.419Z,59
2016-11-24T06:29:03.441Z,59
2016-11-24T06:30:09.470Z,59
2016-11-24T06:31:15.495Z,58
2016-11-24T06:32:21.513Z,58
2016-11-24T06:33:27.534Z,58
2016-11-24T06:34:33.565Z,58
2016-11-24T06:35:39.582Z,58
2016-11-24T06:36:45.603Z,58
2016-11-24T06:37:51.619Z,58
2016-11-24T06:38:57.650Z,58
2016-11-24T06:40:03.667Z,58
2016-11-24T06:41:09.684Z,58
2016-11-24T06:42:15.704Z,58
2016-11-24T06:43:21.735Z,58
2016-11-24T06:44:27.758Z,58
2016-11-24T06:45:33.777Z,58
2016-11-24T06:46:39.798Z,58
2016-11-24T06:47:45.824Z,58
2016-11-24T06:48:51.851Z,58
2016-11-24T06:49:57.872Z,57
2016-11-24T06:51:03.891Z,57
2016-11-24T06:52:09.914Z,57
2016-11-24T06:53:15.932Z,57
2016-11-24T06:54:21.951Z,57
2016-11-24T06:56:38.096Z,57
2016-11-24T06:57:44.114Z,57
2016-11-24T06:58:50.130Z,57
2016-11-24T06:59:56.157Z,57
2016-11-24T07:01:02.180Z,57
2016-11-24T07:02:08.206Z,58
2016-11-24T07:03:14.232Z,58
2016-11-24T07:04:20.248Z,57
2016-11-24T07:05:26.267Z,57
2016-11-24T07:06:32.297Z,57
2016-11-24T07:07:38.320Z,58
2016-11-24T07:08:44.336Z,58
2016-11-24T07:09:50.366Z,58
2016-11-24T07:10:56.389Z,58
2016-11-24T07:12:08.777Z,58
2016-11-24T07:13:14.797Z,58
2016-11-24T07:14:20.817Z,58
2016-11-24T07:15:26.842Z,58
2016-11-24T07:16:32.863Z,58
2016-11-24T07:17:38.885Z,58
2016-11-24T07:18:44.904Z,58
2016-11-24T07:19:50.923Z,58
2016-11-24T07:20:56.939Z,58
2016-11-24T07:22:02.971Z,58
2016-11-24T07:23:08.990Z,58
2016-11-24T07:24:15.008Z,58
2016-11-24T07:25:21.038Z,58
2016-11-24T07:26:27.063Z,57
2016-11-24T07:27:33.083Z,58
2016-11-24T07:28:39.105Z,57
2016-11-24T07:29:45.130Z,57
2016-11-24T07:30:51.144Z,57
2016-11-24T07:31:57.166Z,57
2016-11-24T07:33:03.182Z,57
2016-11-24T07:34:09.208Z,57
2016-11-24T07:35:15.225Z,57
2016-11-24T07:36:21.241Z,57
2016-11-24T07:37:27.263Z,57
2016-11-24T07:38:33.293Z,57
2016-11-24T07:39:39.319Z,57
2016-11-24T07:40:45.334Z,57
2016-11-24T07:41:51.355Z,57
2016-11-24T07:42:57.377Z,57
2016-11-24T07:44:03.406Z,57
2016-11-24T07:45:09.429Z,57
2016-11-24T07:46:15.449Z,57
2016-11-24T07:47:21.475Z,57
2016-11-24T07:48:27.489Z,57
2016-11-24T07:49:33.509Z,57
2016-11-24T07:50:39.530Z,57
2016-11-24T07:51:45.556Z,57
2016-11-24T07:52:59.039Z,57
2016-11-24T07:54:05.056Z,57
2016-11-24T07:55:11.077Z,57
2016-11-24T07:56:17.304Z,57
2016-11-24T07:57:23.319Z,57
2016-11-24T07:58:29.349Z,57
2016-11-24T07:59:35.370Z,57
2016-11-24T08:00:41.388Z,57
2016-11-24T08:01:47.406Z,57
2016-11-24T08:02:53.436Z,57
2016-11-24T08:03:59.459Z,57
2016-11-24T08:05:05.476Z,57
2016-11-24T08:06:11.505Z,57
2016-11-24T08:07:17.532Z,57
2016-11-24T08:08:23.553Z,57
2016-11-24T08:09:29.576Z,57
2016-11-24T08:10:35.603Z,57
2016-11-24T08:11:41.617Z,57
2016-11-24T08:12:47.639Z,56
2016-11-24T08:13:53.655Z,57
2016-11-24T08:14:59.682Z,56
2016-11-24T08:16:05.701Z,56
2016-11-24T08:17:11.724Z,56
2016-11-24T08:18:17.739Z,56
2016-11-24T08:19:23.772Z,56
2016-11-24T08:20:29.795Z,56
2016-11-24T08:21:35.819Z,56
2016-11-24T08:22:41.838Z,56
2016-11-24T08:23:47.869Z,56
2016-11-24T08:24:53.889Z,56
2016-11-24T08:25:59.911Z,56
2016-11-24T08:27:05.933Z,57
2016-11-24T08:28:10.851Z,57
2016-11-24T08:29:16.869Z,57
2016-11-24T08:30:22.896Z,57
2016-11-24T08:31:28.911Z,57
2016-11-24T08:32:34.934Z,57
2016-11-24T08:33:40.959Z,57
2016-11-24T08:34:46.983Z,57
2016-11-24T08:35:53.013Z,57
2016-11-24T08:36:59.030Z,57
2016-11-24T08:38:05.045Z,57
2016-11-24T08:39:11.068Z,56
2016-11-24T08:40:17.099Z,56
2016-11-24T08:41:23.119Z,56
2016-11-24T08:42:29.137Z,56
2016-11-24T08:43:35.163Z,56
2016-11-24T08:44:41.183Z,56
2016-11-24T08:45:47.206Z,56
2016-11-24T08:46:53.223Z,56
2016-11-24T08:47:59.243Z,56
2016-11-24T08:49:05.263Z,56
2016-11-24T08:50:11.285Z,55
2016-11-24T08:51:17.308Z,56
2016-11-24T08:52:23.325Z,55
2016-11-24T08:53:29.350Z,55
2016-11-24T08:54:35.376Z,55
2016-11-24T08:55:41.407Z,55
2016-11-24T08:56:47.425Z,55
2016-11-24T08:57:53.448Z,55
2016-11-24T08:58:59.468Z,55
2016-11-24T09:00:05.689Z,55
2016-11-24T09:01:11.707Z,55
2016-11-24T09:02:17.730Z,55
2016-11-24T09:03:23.756Z,55
2016-11-24T09:04:29.768Z,55
2016-11-24T09:05:35.797Z,55
2016-11-24T09:06:41.814Z,55
2016-11-24T09:07:47.829Z,55
2016-11-24T09:08:53.854Z,55
2016-11-24T09:09:59.869Z,55
2016-11-24T09:11:05.899Z,55
2016-11-24T09:12:11.919Z,55
2016-11-24T09:13:17.937Z,55
2016-11-24T09:14:23.961Z,55
2016-11-24T09:15:37.448Z,54
2016-11-24T09:16:43.473Z,54
2016-11-24T09:17:49.495Z,54
2016-11-24T09:18:55.522Z,54
2016-11-24T09:20:01.537Z,54
2016-11-24T09:21:07.580Z,54
2016-11-24T09:22:13.584Z,54
2016-11-24T09:23:19.604Z,54
2016-11-24T09:24:25.630Z,54
2016-11-24T09:25:31.659Z,54
2016-11-24T09:26:37.682Z,54
2016-11-24T09:27:43.701Z,54
2016-11-24T09:28:49.732Z,54
2016-11-24T09:29:55.761Z,54
2016-11-24T09:31:01.785Z,54
2016-11-24T09:32:07.808Z,54
2016-11-24T09:33:13.841Z,54
2016-11-24T09:34:19.854Z,53
2016-11-24T09:35:25.874Z,53
2016-11-24T09:36:31.889Z,53
2016-11-24T09:37:37.918Z,53
2016-11-24T09:38:43.937Z,53
2016-11-24T09:39:49.953Z,52
2016-11-24T09:40:55.982Z,52
2016-11-24T09:42:02.005Z,52
2016-11-24T09:43:08.030Z,52
2016-11-24T09:44:13.310Z,52
2016-11-24T09:45:19.329Z,52
2016-11-24T09:46:25.356Z,52
2016-11-24T09:47:31.388Z,51
2016-11-24T09:48:37.412Z,51
2016-11-24T09:49:43.439Z,51
2016-11-24T09:50:49.460Z,51
2016-11-24T09:51:55.477Z,51
2016-11-24T09:53:00.755Z,51
2016-11-24T09:54:06.768Z,51
2016-11-24T09:55:12.796Z,51
2016-11-24T09:56:18.819Z,51
2016-11-24T09:57:24.843Z,51
2016-11-24T09:58:30.869Z,51
2016-11-24T09:59:36.900Z,50
2016-11-24T10:00:42.920Z,50
2016-11-24T10:01:48.945Z,50
2016-11-24T10:02:54.970Z,50
2016-11-24T10:04:00.994Z,50
2016-11-24T10:05:07.014Z,50
2016-11-24T10:06:13.040Z,50
2016-11-24T10:07:19.058Z,50
2016-11-24T10:08:25.083Z,50
2016-11-24T10:09:31.107Z,50
2016-11-24T10:10:37.130Z,50
2016-11-24T10:11:43.350Z,50
2016-11-24T10:12:49.375Z,50
2016-11-24T10:13:55.403Z,50
2016-11-24T10:15:01.423Z,49
2016-11-24T10:16:07.447Z,49
2016-11-24T10:17:13.474Z,49
2016-11-24T10:18:19.503Z,49
2016-11-24T10:19:25.535Z,49
2016-11-24T10:21:39.182Z,49
2016-11-24T10:22:45.196Z,49
2016-11-24T10:23:51.216Z,49
2016-11-24T10:24:57.241Z,49
2016-11-24T10:26:03.262Z,49
2016-11-24T10:27:09.292Z,49
2016-11-24T10:29:22.946Z,49
2016-11-24T10:30:28.964Z,48
2016-11-24T10:31:35.187Z,48
2016-11-24T10:32:41.211Z,48
2016-11-24T10:33:47.235Z,48
2016-11-24T10:34:53.267Z,48
2016-11-24T10:35:59.351Z,48
2016-11-24T10:37:04.574Z,48
2016-11-24T10:38:10.590Z,48
2016-11-24T10:39:16.621Z,47
2016-11-24T10:40:22.647Z,47
2016-11-24T10:41:28.670Z,47
2016-11-24T10:42:33.953Z,47
2016-11-24T10:43:39.980Z,39
2016-11-24T10:44:46.003Z,38
2016-11-24T10:45:52.027Z,36
2016-11-24T10:46:58.498Z,40
2016-11-24T10:48:04.518Z,45
2016-11-24T10:49:10.546Z,49
2016-11-24T10:50:16.562Z,50
2016-11-24T10:51:22.588Z,51
2016-11-24T10:52:28.616Z,53
2016-11-24T10:53:34.631Z,53
2016-11-24T10:55:50.806Z,54
2016-11-24T10:56:56.827Z,54
2016-11-24T10:58:02.850Z,54
2016-11-24T10:59:08.875Z,55
2016-11-24T11:00:14.904Z,55
2016-11-24T11:01:20.934Z,55
2016-11-24T11:02:34.444Z,55
2016-11-24T11:03:40.464Z,55
2016-11-24T11:04:46.487Z,55
2016-11-24T11:05:52.516Z,55
2016-11-24T11:06:58.536Z,55
2016-11-24T11:08:04.570Z,55
2016-11-24T11:09:10.593Z,55
2016-11-24T11:10:16.607Z,55
2016-11-24T11:11:22.626Z,55
2016-11-24T11:12:28.661Z,55
2016-11-24T11:13:34.686Z,55
2016-11-24T11:14:40.704Z,55
2016-11-24T11:15:46.737Z,55
2016-11-24T11:16:52.763Z,55
2016-11-24T11:17:58.785Z,55
2016-11-24T11:19:04.809Z,55
2016-11-24T11:20:10.840Z,55
2016-11-24T11:21:16.860Z,55
2016-11-24T11:22:22.884Z,55
2016-11-24T11:23:28.904Z,55
2016-11-24T11:24:34.934Z,55
2016-11-24T11:25:40.953Z,55
2016-11-24T11:26:46.973Z,55
2016-11-24T11:27:53.003Z,55
2016-11-24T11:28:59.028Z,55
2016-11-24T11:30:05.062Z,55
2016-11-24T11:31:11.079Z,55
2016-11-24T11:32:17.104Z,55
2016-11-24T11:33:23.135Z,55
2016-11-24T11:34:29.161Z,55
2016-11-24T11:35:35.187Z,54
2016-11-24T11:36:41.208Z,54
2016-11-24T11:37:47.231Z,54
2016-11-24T11:38:53.251Z,54
2016-11-24T11:39:59.277Z,54
2016-11-24T11:41:05.297Z,54
2016-11-24T11:42:11.324Z,54
2016-11-24T11:43:17.354Z,54
2016-11-24T11:44:23.379Z,54
2016-11-24T11:45:29.404Z,54
2016-11-24T11:46:35.435Z,54
2016-11-24T11:47:41.456Z,54
2016-11-24T11:48:47.478Z,53
2016-11-24T11:49:53.507Z,53
2016-11-24T11:50:59.538Z,53
2016-11-24T11:52:05.549Z,52
2016-11-24T11:53:11.573Z,52
2016-11-24T11:54:17.599Z,52
2016-11-24T11:55:23.622Z,52
2016-11-24T11:56:29.652Z,52
2016-11-24T11:57:35.670Z,51
2016-11-24T11:58:41.692Z,52
2016-11-24T11:59:47.718Z,52
2016-11-24T12:00:53.742Z,52
2016-11-24T12:01:59.763Z,52
2016-11-24T12:03:05.788Z,51
2016-11-24T12:04:12.014Z,51
2016-11-24T12:05:18.040Z,51
2016-11-24T12:06:24.061Z,51
2016-11-24T12:07:30.090Z,51
2016-11-24T12:08:36.114Z,51
2016-11-24T12:10:49.781Z,51
2016-11-24T12:11:55.803Z,51
2016-11-24T12:13:01.829Z,51
2016-11-24T12:14:07.853Z,51
2016-11-24T12:15:13.878Z,51
2016-11-24T12:16:19.907Z,51
2016-11-24T12:17:25.926Z,51
2016-11-24T12:18:31.945Z,50
2016-11-24T12:19:37.967Z,50
2016-11-24T12:20:43.999Z,50
2016-11-24T12:21:50.024Z,50
2016-11-24T12:22:56.047Z,50
2016-11-24T12:24:02.074Z,50
2016-11-24T12:25:08.103Z,50
2016-11-24T12:26:14.126Z,50
2016-11-24T12:27:20.147Z,50
2016-11-24T12:28:26.179Z,51
2016-11-24T12:29:32.194Z,50
2016-11-24T12:30:38.218Z,50
2016-11-24T12:31:44.237Z,50
2016-11-24T12:32:50.266Z,51
2016-11-24T12:33:56.289Z,51
2016-11-24T12:35:02.312Z,51
2016-11-24T12:36:08.337Z,50
2016-11-24T12:37:14.366Z,50
2016-11-24T12:38:20.390Z,50
2016-11-24T12:39:26.414Z,51
2016-11-24T12:40:32.429Z,52
2016-11-24T12:41:38.458Z,52
2016-11-24T12:42:44.491Z,53
2016-11-24T12:43:50.510Z,53
2016-11-24T12:44:56.533Z,53
2016-11-24T12:46:02.557Z,53
2016-11-24T12:47:08.576Z,53
2016-11-24T12:48:14.599Z,54
2016-11-24T12:49:20.619Z,54
2016-11-24T12:50:26.649Z,54
2016-11-24T12:51:32.667Z,54
2016-11-24T12:52:38.694Z,53
2016-11-24T12:53:44.727Z,54
2016-11-24T12:54:50.747Z,54
2016-11-24T12:55:56.768Z,54
2016-11-24T12:57:02.799Z,54
2016-11-24T12:58:08.075Z,54
2016-11-24T12:59:14.298Z,54
2016-11-24T13:00:20.317Z,54
2016-11-24T13:01:26.344Z,54
2016-11-24T13:02:32.366Z,54
2016-11-24T13:03:38.393Z,54
2016-11-24T13:04:44.416Z,53
2016-11-24T13:05:50.437Z,53
2016-11-24T13:06:56.465Z,53
2016-11-24T13:08:02.491Z,53
2016-11-24T13:09:08.515Z,53
2016-11-24T13:10:14.533Z,53
2016-11-24T13:11:20.557Z,53
2016-11-24T13:12:26.585Z,53
2016-11-24T13:13:32.607Z,54
2016-11-24T13:14:38.631Z,54
2016-11-24T13:15:44.654Z,54
2016-11-24T13:16:50.677Z,54
2016-11-24T13:17:56.695Z,55
2016-11-24T13:19:02.716Z,55
2016-11-24T13:20:08.741Z,56
2016-11-24T13:21:14.768Z,56
2016-11-24T13:22:20.788Z,56
2016-11-24T13:23:26.820Z,56
2016-11-24T13:24:32.835Z,57
2016-11-24T13:25:38.853Z,57
2016-11-24T13:26:44.879Z,58
2016-11-24T13:27:50.901Z,58
2016-11-24T13:28:56.938Z,59
2016-11-24T13:30:02.953Z,60
2016-11-24T13:31:08.981Z,60
2016-11-24T13:32:14.999Z,61
2016-11-24T13:33:21.028Z,62
2016-11-24T13:34:27.049Z,62
2016-11-24T13:35:33.065Z,63
2016-11-24T13:36:39.084Z,63
2016-11-24T13:37:45.111Z,63
2016-11-24T13:38:51.128Z,64
2016-11-24T13:39:57.144Z,64
2016-11-24T13:41:03.168Z,64
2016-11-24T13:42:10.952Z,65
2016-11-24T13:43:16.149Z,65
2016-11-24T13:44:22.164Z,65
2016-11-24T13:45:28.184Z,65
2016-11-24T13:46:34.212Z,65
2016-11-24T13:47:40.227Z,65
2016-11-24T13:48:46.248Z,65
2016-11-24T13:49:52.267Z,66
2016-11-24T13:50:58.293Z,66
2016-11-24T13:52:04.312Z,67
2016-11-24T13:53:10.327Z,67
2016-11-24T13:54:16.368Z,67
2016-11-24T13:55:22.393Z,67
2016-11-24T13:56:28.419Z,67
2016-11-24T13:57:34.436Z,68
2016-11-24T13:58:40.463Z,68
2016-11-24T13:59:46.483Z,68
2016-11-24T14:00:52.508Z,68
2016-11-24T14:01:58.528Z,68
2016-11-24T14:03:03.802Z,68
2016-11-24T14:04:09.829Z,68
2016-11-24T14:05:15.858Z,68
2016-11-24T14:06:21.873Z,68
2016-11-24T14:07:27.892Z,68
2016-11-24T14:08:33.908Z,68
2016-11-24T14:09:39.936Z,68
2016-11-24T14:10:45.965Z,68
2016-11-24T14:11:51.983Z,69
2016-11-24T14:12:58.025Z,69
2016-11-24T14:14:04.038Z,69
2016-11-24T14:15:10.062Z,70
2016-11-24T14:16:16.086Z,70
2016-11-24T14:17:22.100Z,70
2016-11-24T14:18:28.113Z,70
2016-11-24T14:19:34.136Z,70
2016-11-24T14:20:40.162Z,70
2016-11-24T14:22:53.799Z,70
2016-11-24T14:24:00.105Z,70
2016-11-24T14:25:06.129Z,70
2016-11-24T14:26:12.145Z,70
2016-11-24T14:27:18.167Z,70
2016-11-24T14:28:24.199Z,70
2016-11-24T14:29:30.216Z,70
2016-11-24T14:30:36.234Z,70
2016-11-24T14:31:42.257Z,70
2016-11-24T14:55:42.634Z,70
2016-11-24T14:56:48.652Z,71
2016-11-24T14:57:54.676Z,71
2016-11-24T14:59:00.903Z,71
2016-11-24T15:00:06.923Z,72
2016-11-24T15:01:12.948Z,71
2016-11-24T15:02:18.967Z,71
2016-11-24T15:03:24.985Z,72
2016-11-24T15:04:31.001Z,72
2016-11-24T15:05:37.033Z,72
2016-11-24T15:06:43.054Z,72
2016-11-24T15:07:49.073Z,72
2016-11-24T15:08:55.105Z,72
2016-11-24T15:10:01.129Z,72
2016-11-24T15:11:07.147Z,72
2016-11-24T15:12:13.170Z,72
2016-11-24T15:13:19.197Z,72
2016-11-24T15:14:25.213Z,72
2016-11-24T15:15:31.230Z,72
2016-11-24T15:16:37.246Z,72
2016-11-24T15:17:43.272Z,72
2016-11-24T15:18:49.289Z,72
2016-11-24T15:19:55.313Z,72
2016-11-24T15:21:01.337Z,72
2016-11-24T15:22:07.367Z,73
2016-11-24T15:23:13.390Z,73
2016-11-24T15:24:19.411Z,73
2016-11-24T15:25:25.432Z,73
2016-11-24T15:26:31.464Z,74
2016-11-24T15:27:37.483Z,74
2016-11-24T15:28:43.507Z,74
2016-11-24T15:29:49.529Z,74
2016-11-24T15:30:55.550Z,74
2016-11-24T15:32:01.568Z,74
2016-11-24T15:33:07.585Z,74
2016-11-24T15:34:13.602Z,74
2016-11-24T15:35:19.625Z,74
2016-11-24T15:36:25.849Z,74
2016-11-24T15:37:31.873Z,75
2016-11-24T15:39:48.027Z,75
2016-11-24T15:40:54.048Z,75
2016-11-24T15:42:00.068Z,75
2016-11-24T15:43:06.085Z,75
2016-11-24T15:44:12.105Z,75
2016-11-24T15:45:18.139Z,75
2016-11-24T15:46:24.150Z,75
2016-11-24T15:47:30.265Z,75
2016-11-24T15:48:36.284Z,75
2016-11-24T15:49:42.314Z,74
2016-11-24T15:50:48.336Z,74
2016-11-24T15:51:54.355Z,74
2016-11-24T15:53:00.384Z,74
2016-11-24T15:54:06.412Z,74
2016-11-24T15:55:12.430Z,74
2016-11-24T15:56:18.448Z,74
2016-11-24T15:57:24.478Z,74
2016-11-24T15:58:30.497Z,74
2016-11-24T15:59:36.520Z,74
2016-11-24T16:00:42.535Z,74
2016-11-24T16:01:48.565Z,75
2016-11-24T16:02:54.589Z,75
2016-11-24T16:04:00.810Z,75
2016-11-24T16:05:06.829Z,75
2016-11-24T16:06:12.859Z,75
2016-11-24T16:07:18.887Z,75
2016-11-24T16:08:25.110Z,75
2016-11-24T16:09:31.134Z,75
2016-11-24T16:10:37.156Z,75
2016-11-24T16:11:43.186Z,75
2016-11-24T16:12:49.206Z,75
2016-11-24T16:13:55.226Z,75
2016-11-24T16:15:01.248Z,75
2016-11-24T16:16:07.269Z,75
2016-11-24T16:17:13.290Z,75